Time;durP1;ratioP1;P1;durP2;ratioP2;P2;SDS_P1;SDS_P2;PMS_P1;PMS_P2;Temp;Humidity;BMP_temperature;BMP_pressure;BME280_temperature;BME280_humidity;BME280_pressure;Samples;Min_cycle;Max_cycle;Signal;HPM_P1;HPM_P2
2024/01/12 00:00:10;;;;;;;22.42;10.02;;;;;;;4.57;55.85;103335.19;4911742;28;126042;-78
2024/01/12 00:02:40;;;;;;;23.15;9.98;;;;;;;4.58;55.83;103342.22;4927441;28;123649;-78
2024/01/12 00:05:08;;;;;;;23.33;9.43;;;;;;;4.57;55.86;103345.69;4896270;28;114800;-78
2024/01/12 00:07:35;;;;;;;18.70;8.95;;;;;;;4.54;55.89;103350.88;4901789;28;115021;-79
2024/01/12 00:10:03;;;;;;;22.77;9.23;;;;;;;4.54;55.66;103345.63;4910602;28;122429;-78
2024/01/12 00:12:31;;;;;;;22.25;9.50;;;;;;;4.54;56.14;103356.13;4911963;28;123052;-79
2024/01/12 00:14:58;;;;;;;24.77;9.18;;;;;;;4.51;55.93;103350.81;4906239;28;114326;-79
2024/01/12 00:17:25;;;;;;;24.55;9.38;;;;;;;4.53;56.01;103356.97;4932273;28;114659;-78
2024/01/12 00:19:52;;;;;;;22.73;9.73;;;;;;;4.53;55.96;103350.00;4907704;28;124890;-78
2024/01/12 00:22:20;;;;;;;25.15;9.73;;;;;;;4.54;56.21;103345.63;4930322;28;124299;-78
2024/01/12 00:24:47;;;;;;;25.52;10.10;;;;;;;4.54;56.02;103345.63;4929395;28;114365;-78
2024/01/12 00:27:14;;;;;;;28.05;9.32;;;;;;;4.55;56.09;103347.41;4909590;28;114800;-79
2024/01/12 00:29:41;;;;;;;23.65;10.10;;;;;;;4.56;55.87;103343.91;4899786;28;124059;-78
2024/01/12 00:32:09;;;;;;;24.85;9.75;;;;;;;4.56;56.06;103349.16;4908604;28;124323;-78
2024/01/12 00:34:36;;;;;;;22.42;9.65;;;;;;;4.56;56.12;103349.16;4931367;28;115044;-78
2024/01/12 00:37:03;;;;;;;29.02;10.23;;;;;;;4.56;56.06;103349.16;4931175;28;115606;-78
2024/01/12 00:39:32;;;;;;;23.88;10.02;;;;;;;4.56;56.01;103349.16;4912094;28;124114;-78
2024/01/12 00:41:59;;;;;;;22.95;9.40;;;;;;;4.56;55.87;103343.91;4912680;28;125630;-78
2024/01/12 00:44:27;;;;;;;19.05;9.27;;;;;;;4.55;56.08;103342.16;4896154;28;113793;-77
2024/01/12 00:46:55;;;;;;;26.35;11.00;;;;;;;4.56;56.22;103338.66;4911281;28;114912;-78
2024/01/12 00:49:22;;;;;;;28.33;10.52;;;;;;;4.57;55.89;103337.81;4917164;28;124871;-78
2024/01/12 00:51:49;;;;;;;24.90;10.35;;;;;;;4.57;56.13;103335.19;4921548;28;124066;-78
2024/01/12 00:54:16;;;;;;;23.52;9.95;;;;;;;4.57;55.87;103340.44;4912043;28;115634;-78
2024/01/12 00:56:43;;;;;;;21.17;9.43;;;;;;;4.57;55.89;103329.94;4898139;28;115226;-78
2024/01/12 00:59:11;;;;;;;24.38;10.57;;;;;;;4.55;56.05;103331.66;4913939;28;124930;-78
2024/01/12 01:01:38;;;;;;;24.88;10.20;;;;;;;4.56;55.97;103342.19;4931145;28;123795;-78
2024/01/12 01:04:05;;;;;;;20.67;10.35;;;;;;;4.56;56.23;103350.06;4912586;28;114281;-78
2024/01/12 01:06:32;;;;;;;25.77;10.27;;;;;;;4.56;56.36;103349.16;4915245;28;112589;-78
2024/01/12 01:08:59;;;;;;;22.50;9.65;;;;;;;4.58;56.10;103342.22;4894717;28;125326;-78
2024/01/12 01:11:27;;;;;;;28.92;10.20;;;;;;;4.58;56.23;103348.34;4880997;28;123729;-78
2024/01/12 01:13:54;;;;;;;22.58;9.57;;;;;;;4.59;56.05;103354.47;4930061;28;114987;-78
2024/01/12 01:16:23;;;;;;;21.92;10.38;;;;;;;4.59;55.92;103354.47;4912167;28;115125;-77
2024/01/12 01:18:51;;;;;;;22.48;10.15;;;;;;;4.59;56.19;103357.09;4911880;28;124547;-78
2024/01/12 01:21:18;;;;;;;23.52;10.45;;;;;;;4.60;56.04;103361.50;4909228;28;125252;-78
2024/01/12 01:23:45;;;;;;;22.90;11.18;;;;;;;4.59;56.11;103362.34;4911788;28;114857;-78
2024/01/12 01:26:12;;;;;;;26.58;10.18;;;;;;;4.59;56.09;103359.72;4913127;28;115049;-78
2024/01/12 01:28:40;;;;;;;26.23;10.80;;;;;;;4.59;56.08;103375.47;4911721;28;125990;-78
2024/01/12 01:31:07;;;;;;;23.95;9.73;;;;;;;4.57;56.20;103377.19;4910905;28;123372;-78
2024/01/12 01:33:34;;;;;;;25.70;9.80;;;;;;;4.58;56.07;103373.72;4935879;28;113399;-77
2024/01/12 01:36:03;;;;;;;21.40;10.23;;;;;;;4.58;56.10;103381.59;4921430;28;113844;-79
2024/01/12 01:38:30;;;;;;;25.83;10.88;;;;;;;4.57;55.94;103377.19;4910771;28;124130;-79
2024/01/12 01:40:57;;;;;;;29.05;11.32;;;;;;;4.57;56.11;103387.69;4908474;28;123657;-79
2024/01/12 01:43:24;;;;;;;25.58;10.98;;;;;;;4.55;56.14;103377.16;4907657;28;115249;-79
2024/01/12 01:45:52;;;;;;;24.58;10.32;;;;;;;4.55;56.38;103373.66;4902292;28;115101;-79
2024/01/12 01:48:19;;;;;;;24.00;10.63;;;;;;;4.55;56.27;103378.91;4919207;28;124414;-79
2024/01/12 01:50:47;;;;;;;26.13;10.00;;;;;;;4.56;56.42;103383.28;4906692;28;125017;-79
2024/01/12 01:53:15;;;;;;;21.13;9.25;;;;;;;4.56;56.11;103380.66;4914221;28;115485;-79
2024/01/12 01:55:43;;;;;;;24.17;9.52;;;;;;;4.58;56.38;103378.97;4896896;28;114855;-78
2024/01/12 01:58:11;;;;;;;24.65;10.10;;;;;;;4.58;56.14;103373.72;4895330;28;125770;-78
2024/01/12 02:00:39;;;;;;;22.40;10.60;;;;;;;4.59;56.37;103370.22;4895793;28;123710;-79
2024/01/12 02:03:08;;;;;;;27.17;10.25;;;;;;;4.59;56.13;103367.59;4894428;28;114994;-79
2024/01/12 02:05:35;;;;;;;21.85;9.90;;;;;;;4.58;56.34;103363.22;4880653;28;113663;-79
2024/01/12 02:08:03;;;;;;;25.30;9.70;;;;;;;4.59;56.39;103359.72;4917943;28;124054;-79
2024/01/12 02:10:31;;;;;;;23.88;9.15;;;;;;;4.59;56.37;103359.72;4905119;28;120809;-79
2024/01/12 02:12:58;;;;;;;24.23;10.35;;;;;;;4.59;56.14;103359.72;4923814;28;115962;-79
2024/01/12 02:15:26;;;;;;;21.73;10.02;;;;;;;4.59;56.17;103362.34;4900457;28;113340;-78
2024/01/12 02:17:53;;;;;;;19.33;9.90;;;;;;;4.60;56.37;103361.50;4897756;28;125434;-79
2024/01/12 02:20:20;;;;;;;23.92;9.95;;;;;;;4.59;56.50;103359.72;4894322;28;125036;-79
2024/01/12 02:22:47;;;;;;;23.17;10.55;;;;;;;4.60;56.18;103361.50;4913887;28;114675;-79
2024/01/12 02:25:15;;;;;;;23.35;9.95;;;;;;;4.60;56.34;103361.50;4905795;28;114942;-78
2024/01/12 02:27:42;;;;;;;26.20;10.00;;;;;;;4.61;56.12;103369.38;4912190;28;125299;-79
2024/01/12 02:30:10;;;;;;;19.98;9.73;;;;;;;4.60;56.49;103356.25;4929292;28;123542;-78
2024/01/12 02:32:37;;;;;;;24.25;9.80;;;;;;;4.60;56.27;103353.63;4912948;28;114566;-79
2024/01/12 02:35:06;;;;;;;20.63;9.77;;;;;;;4.59;56.61;103350.09;4924343;28;113964;-79
2024/01/12 02:37:33;;;;;;;21.60;10.40;;;;;;;4.61;56.18;103347.53;4896636;28;123067;-79
2024/01/12 02:40:01;;;;;;;22.55;9.32;;;;;;;4.62;56.31;103344.06;4922882;28;123685;-79
2024/01/12 02:42:28;;;;;;;22.00;10.10;;;;;;;4.62;56.61;103344.06;4913144;28;113968;-79
2024/01/12 02:44:55;;;;;;;25.63;10.93;;;;;;;4.63;56.37;103341.47;4930061;28;113786;-79
2024/01/12 02:47:22;;;;;;;21.98;10.20;;;;;;;4.63;56.54;103343.19;4911687;28;123487;-79
2024/01/12 02:49:50;;;;;;;22.40;9.93;;;;;;;4.62;56.19;103342.31;4906108;28;125060;-79
2024/01/12 02:52:17;;;;;;;23.17;9.43;;;;;;;4.62;56.74;103349.31;4900563;28;114657;-79
2024/01/12 02:54:44;;;;;;;23.55;10.05;;;;;;;4.61;56.14;103342.28;4895717;28;114806;-79
2024/01/12 02:57:13;;;;;;;28.15;10.15;;;;;;;4.61;56.46;103352.78;4909472;28;125621;-79
2024/01/12 02:59:41;;;;;;;19.55;9.73;;;;;;;4.62;56.62;103354.56;4927276;28;124042;-79
2024/01/12 03:02:08;;;;;;;20.17;9.82;;;;;;;4.62;56.42;103349.31;4889956;28;115639;-79
2024/01/12 03:04:35;;;;;;;26.05;10.23;;;;;;;4.61;56.58;103348.41;4907148;28;115345;-79
2024/01/12 03:07:02;;;;;;;24.98;10.57;;;;;;;4.62;56.50;103350.19;4908748;28;123114;-79
2024/01/12 03:09:30;;;;;;;21.73;9.98;;;;;;;4.62;56.44;103349.31;4926191;28;123087;-79
2024/01/12 03:11:57;;;;;;;28.55;10.38;;;;;;;4.63;56.47;103340.56;4916057;28;113480;-79
2024/01/12 03:14:24;;;;;;;23.73;9.93;;;;;;;4.64;56.39;103337.09;4916222;28;114134;-79
2024/01/12 03:16:51;;;;;;;22.88;9.95;;;;;;;4.62;56.49;103338.81;4917521;28;125152;-79
2024/01/12 03:19:18;;;;;;;23.38;9.82;;;;;;;4.60;56.67;103336.13;4930984;28;124892;-79
2024/01/12 03:21:46;;;;;;;23.20;10.00;;;;;;;4.60;56.41;103340.50;4895932;28;113787;-79
2024/01/12 03:24:13;;;;;;;23.02;10.23;;;;;;;4.60;56.44;103340.50;4893389;28;113078;-79
2024/01/12 03:26:41;;;;;;;22.20;10.15;;;;;;;4.61;56.48;103337.91;4900321;28;124014;-79
2024/01/12 03:29:08;;;;;;;29.67;10.77;;;;;;;4.61;56.77;103331.78;4905824;28;123442;-79
2024/01/12 03:31:35;;;;;;;26.23;10.60;;;;;;;4.62;56.85;103338.81;4912668;28;113318;-79
2024/01/12 03:34:02;;;;;;;25.30;10.18;;;;;;;4.63;56.77;103337.94;4909877;28;113420;-79
2024/01/12 03:36:30;;;;;;;20.27;9.65;;;;;;;4.63;56.43;103335.31;4911639;28;123445;-79
2024/01/12 03:38:57;;;;;;;25.38;9.10;;;;;;;4.62;56.50;103329.19;4904996;28;123214;-79
2024/01/12 03:41:25;;;;;;;23.92;10.68;;;;;;;4.63;56.63;103327.44;4912589;28;114016;-79
2024/01/12 03:43:52;;;;;;;20.40;9.98;;;;;;;4.63;56.80;103324.81;4913850;28;114720;-79
2024/01/12 03:46:21;;;;;;;26.95;10.15;;;;;;;4.64;56.67;103316.09;4887881;28;123595;-79
2024/01/12 03:48:49;;;;;;;28.17;10.82;;;;;;;4.63;56.60;103309.06;4912210;28;123469;-79
2024/01/12 03:51:16;;;;;;;21.33;9.50;;;;;;;4.63;56.48;103314.31;4912374;28;114606;-78
2024/01/12 03:53:44;;;;;;;30.70;11.27;;;;;;;4.61;56.88;103316.91;4883869;28;116092;-79
2024/01/12 03:56:11;;;;;;;24.85;10.27;;;;;;;4.61;56.60;103308.16;4915683;28;123962;-79
2024/01/12 03:58:38;;;;;;;25.40;10.93;;;;;;;4.61;56.27;103311.66;4903631;28;125148;-79
2024/01/12 04:01:07;;;;;;;26.92;11.57;;;;;;;4.60;56.72;103309.03;4914657;28;114948;-79
2024/01/12 04:03:34;;;;;;;21.95;10.13;;;;;;;4.60;56.54;103299.41;4912334;28;113883;-79
2024/01/12 04:06:07;;;;;;;21.77;10.43;;;;;;;4.61;56.95;103310.78;4916953;28;123792;-79
2024/01/12 04:08:34;;;;;;;28.80;10.88;;;;;;;4.60;56.43;103309.03;4916108;28;124146;-79
2024/01/12 04:11:02;;;;;;;28.00;10.98;;;;;;;4.61;56.81;103316.03;4908370;28;114938;-79
2024/01/12 04:13:29;;;;;;;24.13;10.45;;;;;;;4.60;56.74;103311.66;4907492;28;114320;-79
2024/01/12 04:15:56;;;;;;;26.45;10.40;;;;;;;4.61;56.68;103319.53;4904179;28;123926;-79
2024/01/12 04:18:23;;;;;;;21.20;10.50;;;;;;;4.62;56.85;103317.81;4905006;28;124008;-79
2024/01/12 04:20:51;;;;;;;28.02;11.10;;;;;;;4.61;57.00;103321.28;4916487;28;114498;-79
2024/01/12 04:23:18;;;;;;;24.27;10.52;;;;;;;4.63;56.95;103324.81;4915415;28;114215;-79
2024/01/12 04:25:45;;;;;;;22.13;9.90;;;;;;;4.63;56.74;103319.56;4911321;28;125129;-79
2024/01/12 04:28:12;;;;;;;24.52;11.07;;;;;;;4.63;56.85;103324.81;4916183;28;123749;-79
2024/01/12 04:30:40;;;;;;;24.08;10.13;;;;;;;4.64;56.47;103323.97;4913960;28;114419;-79
2024/01/12 04:33:07;;;;;;;25.55;10.50;;;;;;;4.63;56.87;103317.84;4916909;28;112716;-79
2024/01/12 04:35:34;;;;;;;24.40;9.85;;;;;;;4.63;56.85;103319.56;4916848;28;124494;-79
2024/01/12 04:38:02;;;;;;;27.20;10.15;;;;;;;4.64;56.86;103316.09;4900207;28;125474;-79
2024/01/12 04:40:29;;;;;;;27.15;10.90;;;;;;;4.64;56.87;103316.09;4912851;28;114136;-79
2024/01/12 04:42:56;;;;;;;25.83;11.23;;;;;;;4.64;56.96;103323.97;4914914;28;114452;-79
2024/01/12 04:45:23;;;;;;;25.00;10.40;;;;;;;4.64;56.64;103323.97;4902898;28;123622;-79
2024/01/12 04:47:50;;;;;;;21.13;10.10;;;;;;;4.64;56.76;103321.34;4914652;28;124650;-79
2024/01/12 04:50:18;;;;;;;25.25;10.00;;;;;;;4.65;57.04;103315.22;4932222;28;114296;-79
2024/01/12 04:52:45;;;;;;;20.95;9.77;;;;;;;4.65;56.75;103307.34;4915019;28;114284;-79
2024/01/12 04:55:13;;;;;;;26.70;10.63;;;;;;;4.66;56.90;103298.63;4900898;28;125195;-79
2024/01/12 04:57:40;;;;;;;24.27;10.32;;;;;;;4.67;56.96;103301.28;4917604;28;123611;-79
2024/01/12 05:00:08;;;;;;;22.15;10.23;;;;;;;4.68;56.84;103291.66;4915156;28;114569;-79
2024/01/12 05:02:35;;;;;;;23.20;10.00;;;;;;;4.70;57.01;103294.34;4916376;28;113741;-79
2024/01/12 05:05:04;;;;;;;20.40;9.82;;;;;;;4.69;56.79;103298.72;4917770;28;122992;-79
2024/01/12 05:07:31;;;;;;;22.38;9.70;;;;;;;4.70;57.06;103295.22;4933437;28;124057;-79
2024/01/12 05:09:58;;;;;;;20.33;9.40;;;;;;;4.70;56.90;103295.22;4908585;28;115167;-79
2024/01/12 05:12:26;;;;;;;21.38;9.45;;;;;;;4.70;56.77;103295.22;4883211;28;112946;-79
2024/01/12 05:14:53;;;;;;;23.40;10.15;;;;;;;4.71;56.69;103296.09;4915839;28;123484;-79
2024/01/12 05:17:20;;;;;;;26.25;11.18;;;;;;;4.70;56.92;103289.06;4902548;28;123300;-79
2024/01/12 05:19:47;;;;;;;21.48;10.00;;;;;;;4.70;57.01;103284.69;4924821;28;114137;-79
2024/01/12 05:22:15;;;;;;;25.15;10.15;;;;;;;4.71;56.97;103286.50;4917916;28;113273;-79
2024/01/12 05:24:42;;;;;;;24.60;10.57;;;;;;;4.72;56.85;103288.25;4923717;28;124319;-79
2024/01/12 05:27:09;;;;;;;21.38;10.00;;;;;;;4.72;57.14;103293.50;4933780;28;123993;-79
2024/01/12 05:29:38;;;;;;;24.98;10.77;;;;;;;4.72;56.95;103304.00;4935732;28;115381;-79
2024/01/12 05:32:05;;;;;;;26.65;10.50;;;;;;;4.71;56.88;103307.50;4902504;28;115939;-79
2024/01/12 05:34:32;;;;;;;28.48;10.50;;;;;;;4.70;56.94;103310.94;4914830;28;124051;-79
2024/01/12 05:37:00;;;;;;;24.75;10.32;;;;;;;4.71;56.96;103312.75;4929073;28;123801;-79
2024/01/12 05:39:27;;;;;;;24.48;10.38;;;;;;;4.72;57.22;103319.75;4919168;28;115675;-79
2024/01/12 05:41:55;;;;;;;23.35;10.48;;;;;;;4.72;56.89;103314.50;4911340;28;115037;-79
2024/01/12 05:44:23;;;;;;;26.38;10.68;;;;;;;4.73;56.92;103320.63;4920087;28;124914;-79
2024/01/12 05:46:50;;;;;;;29.08;10.70;;;;;;;4.73;57.17;103313.66;4900363;28;125303;-79
2024/01/12 05:49:17;;;;;;;25.48;10.20;;;;;;;4.73;57.33;103308.41;4913503;28;112692;-77
2024/01/12 05:51:46;;;;;;;21.73;10.35;;;;;;;4.73;57.03;103315.38;4919242;28;113806;-79
2024/01/12 05:54:14;;;;;;;25.20;10.77;;;;;;;4.73;56.81;103313.66;4918847;28;124854;-78
2024/01/12 05:56:42;;;;;;;27.02;10.82;;;;;;;4.72;56.91;103306.63;4916767;28;122626;-78
2024/01/12 05:59:10;;;;;;;23.35;10.48;;;;;;;4.74;57.19;103310.16;4915824;28;114474;-78
2024/01/12 06:01:37;;;;;;;24.58;9.95;;;;;;;4.74;56.97;103304.03;4904388;28;115207;-79
2024/01/12 06:04:04;;;;;;;23.85;9.52;;;;;;;4.72;57.00;103304.00;4918590;28;125398;-78
2024/01/12 06:06:31;;;;;;;25.17;10.25;;;;;;;4.75;57.42;103313.69;4909735;28;123685;-79
2024/01/12 06:08:59;;;;;;;25.48;10.90;;;;;;;4.75;57.21;103319.81;4907239;28;114064;-79
2024/01/12 06:11:27;;;;;;;25.15;10.23;;;;;;;4.75;57.31;103319.81;4929743;28;114407;-79
2024/01/12 06:13:54;;;;;;;27.77;11.05;;;;;;;4.74;57.05;103323.28;4907381;28;123755;-79
2024/01/12 06:16:21;;;;;;;26.38;10.02;;;;;;;4.75;57.07;103325.06;4911210;28;124963;-79
2024/01/12 06:18:49;;;;;;;25.35;10.60;;;;;;;4.74;57.12;103328.53;4920782;28;114397;-79
2024/01/12 06:21:16;;;;;;;21.95;9.00;;;;;;;4.75;57.23;103335.56;4906648;28;114893;-79
2024/01/12 06:23:45;;;;;;;22.67;9.50;;;;;;;4.76;57.24;103326.81;4907142;28;122181;-78
2024/01/12 06:26:14;;;;;;;24.17;9.50;;;;;;;4.75;57.07;103330.31;4917049;28;124341;-79
2024/01/12 06:28:41;;;;;;;22.67;9.30;;;;;;;4.74;57.30;103328.53;4921299;28;113217;-79
2024/01/12 06:31:08;;;;;;;21.90;8.98;;;;;;;4.76;57.14;103332.06;4906522;28;112537;-78
2024/01/12 06:33:38;;;;;;;24.63;9.52;;;;;;;4.76;57.30;103334.69;4928463;28;124732;-79
2024/01/12 06:36:05;;;;;;;21.65;8.65;;;;;;;4.77;57.45;103339.09;4918497;28;123607;-78
2024/01/12 06:38:33;;;;;;;24.58;9.65;;;;;;;4.80;57.17;103339.16;4911959;28;114176;-78
2024/01/12 06:41:02;;;;;;;19.80;9.45;;;;;;;4.79;57.41;103337.38;4912690;28;113177;-79
2024/01/12 06:43:29;;;;;;;21.75;9.05;;;;;;;4.80;57.26;103333.00;4920575;28;122495;-79
2024/01/12 06:45:57;;;;;;;23.25;9.38;;;;;;;4.80;57.38;103333.91;4915401;28;124464;-78
2024/01/12 06:48:25;;;;;;;22.95;9.70;;;;;;;4.79;57.50;103321.63;4933685;28;114633;-79
2024/01/12 06:50:52;;;;;;;22.35;9.88;;;;;;;4.81;57.40;103325.16;4897723;28;115047;-78
2024/01/12 06:53:20;;;;;;;23.75;9.23;;;;;;;4.81;57.25;103325.16;4919673;28;122503;-79
2024/01/12 06:55:47;;;;;;;20.40;8.65;;;;;;;4.83;57.48;103323.47;4919716;28;123940;-78
2024/01/12 06:58:15;;;;;;;22.17;8.50;;;;;;;4.85;57.41;103321.75;4919402;28;114512;-79
2024/01/12 07:00:42;;;;;;;19.65;8.85;;;;;;;4.87;57.26;103325.28;4941035;28;113298;-78
2024/01/12 07:03:09;;;;;;;22.08;8.75;;;;;;;4.90;57.44;103319.22;4917700;28;123172;-78
2024/01/12 07:05:37;;;;;;;20.67;8.88;;;;;;;4.92;57.44;103316.63;4921004;28;122671;-79
2024/01/12 07:08:05;;;;;;;21.10;9.20;;;;;;;4.92;57.18;103316.63;4925266;28;114538;-78
2024/01/12 07:10:32;;;;;;;24.88;9.32;;;;;;;4.92;57.35;103316.63;4908901;28;116128;-78
2024/01/12 07:12:59;;;;;;;25.35;9.50;;;;;;;4.92;57.54;103316.63;4908316;28;123444;-79
2024/01/12 07:15:27;;;;;;;21.67;8.57;;;;;;;4.92;57.52;103316.63;4912263;28;122182;-78
2024/01/12 07:17:54;;;;;;;23.15;8.52;;;;;;;4.93;57.45;103313.13;4934349;28;113742;-77
2024/01/12 07:20:21;;;;;;;28.40;9.30;;;;;;;4.95;57.38;103316.66;4924015;28;114157;-79
2024/01/12 07:22:49;;;;;;;18.00;8.30;;;;;;;4.94;57.60;103309.66;4923760;28;126506;-78
2024/01/12 07:25:17;;;;;;;22.23;8.80;;;;;;;4.93;57.17;103318.38;4923519;28;122380;-78
2024/01/12 07:27:45;;;;;;;20.42;8.73;;;;;;;4.92;57.31;103316.63;4928046;28;114709;-78
2024/01/12 07:30:16;;;;;;;25.27;9.20;;;;;;;4.91;57.63;103325.34;4932305;28;114047;-79
2024/01/12 07:32:52;;;;;;;23.33;9.90;;;;;;;4.93;57.37;103323.63;4939852;28;122641;-79
2024/01/12 07:35:19;;;;;;;22.73;9.30;;;;;;;4.94;57.46;103314.91;4951256;28;122503;-79
2024/01/12 07:37:47;;;;;;;23.90;9.40;;;;;;;4.96;57.75;103310.56;4937644;28;112773;-79
2024/01/12 07:40:14;;;;;;;20.10;9.38;;;;;;;4.97;57.39;103314.94;4941413;28;114297;-79
2024/01/12 07:42:42;;;;;;;27.10;9.63;;;;;;;4.97;57.64;103314.94;4954913;28;123964;-79
2024/01/12 07:45:12;;;;;;;23.23;9.55;;;;;;;4.97;57.70;103309.69;4953533;28;122655;-79
2024/01/12 07:47:40;;;;;;;19.30;8.38;;;;;;;4.97;57.41;103307.06;4954515;28;113091;-79
2024/01/12 07:50:09;;;;;;;23.30;9.40;;;;;;;4.98;57.51;103306.22;4938631;28;113697;-79
2024/01/12 07:52:37;;;;;;;20.40;8.88;;;;;;;4.96;57.59;103307.94;4923264;28;123245;-79
2024/01/12 07:55:05;;;;;;;22.05;8.85;;;;;;;4.97;57.68;103309.69;4943572;28;123529;-80
2024/01/12 07:57:33;;;;;;;20.92;8.77;;;;;;;4.99;57.50;103307.97;4962482;28;116025;-80
2024/01/12 08:00:01;;;;;;;19.02;8.05;;;;;;;5.00;57.54;103315.88;4963736;28;115476;-80
2024/01/12 08:02:38;;;;;;;17.13;7.95;;;;;;;5.03;57.76;103307.19;4946401;28;125086;-80
2024/01/12 08:05:07;;;;;;;18.05;8.10;;;;;;;5.01;58.03;103306.25;4963018;28;124770;-79
2024/01/12 08:07:36;;;;;;;18.52;7.97;;;;;;;5.01;57.52;103316.75;4931446;28;114052;-80
2024/01/12 08:10:04;;;;;;;20.30;8.40;;;;;;;5.04;57.73;103327.34;4945209;28;114579;-80
2024/01/12 08:12:32;;;;;;;20.13;7.70;;;;;;;5.07;57.79;103322.16;4922798;28;123486;-80
2024/01/12 08:15:00;;;;;;;16.85;7.70;;;;;;;5.07;57.54;103322.16;4932773;28;123469;-80
2024/01/12 08:17:28;;;;;;;18.98;7.93;;;;;;;5.09;57.72;103315.19;4947939;28;114548;-80
2024/01/12 08:19:56;;;;;;;17.42;7.20;;;;;;;5.08;57.25;103318.66;4964126;28;114624;-80
2024/01/12 08:22:24;;;;;;;18.42;8.27;;;;;;;5.06;57.83;103312.50;4945324;28;125254;-80
2024/01/12 08:24:53;;;;;;;19.38;7.32;;;;;;;5.08;57.71;103329.16;4930021;28;123890;-80
2024/01/12 08:27:21;;;;;;;18.48;7.13;;;;;;;5.09;58.12;103319.56;4952054;28;115248;-80
2024/01/12 08:29:49;;;;;;;21.10;7.63;;;;;;;5.11;57.62;103321.34;4931174;28;114162;-80
2024/01/12 08:32:18;;;;;;;18.90;7.45;;;;;;;5.14;57.96;103318.78;4955594;28;124520;-80
2024/01/12 08:34:47;;;;;;;15.40;7.60;;;;;;;5.16;57.74;103314.44;4942626;28;125720;-80
2024/01/12 08:37:16;;;;;;;20.13;7.32;;;;;;;5.21;57.67;103325.88;4939718;28;115829;-80
2024/01/12 08:39:44;;;;;;;15.88;7.40;;;;;;;5.23;57.83;103312.78;4946358;28;113848;-80
2024/01/12 08:42:13;;;;;;;18.77;7.80;;;;;;;5.26;57.81;103323.34;4947101;28;125912;-80
2024/01/12 08:44:41;;;;;;;21.23;7.97;;;;;;;5.29;57.78;103333.03;4954743;28;124691;-80
2024/01/12 08:47:10;;;;;;;20.85;7.28;;;;;;;5.30;58.05;103329.56;4943517;28;115445;-80
2024/01/12 08:49:38;;;;;;;18.05;7.82;;;;;;;5.30;57.92;103313.78;4929545;28;116556;-80
2024/01/12 08:52:06;;;;;;;17.98;8.18;;;;;;;5.34;57.86;103320.84;4925174;28;123789;-80
2024/01/12 08:54:35;;;;;;;17.20;8.30;;;;;;;5.38;57.90;103317.41;4959587;28;124753;-79
2024/01/12 08:57:03;;;;;;;18.63;8.25;;;;;;;5.41;57.85;103322.72;4926339;28;113745;-80
2024/01/12 08:59:33;;;;;;;22.77;8.35;;;;;;;5.42;57.57;103319.22;4942706;28;113810;-80
2024/01/12 09:02:02;;;;;;;23.35;9.15;;;;;;;5.42;57.66;103313.97;4959820;28;124865;-80
2024/01/12 09:04:31;;;;;;;19.75;8.32;;;;;;;5.45;58.04;103314.03;4942811;28;127020;-80
2024/01/12 09:07:00;;;;;;;18.80;8.35;;;;;;;5.46;57.63;103316.69;4942757;28;114024;-80
2024/01/12 09:09:28;;;;;;;18.48;7.88;;;;;;;5.47;57.77;103312.31;4959967;28;114814;-80
2024/01/12 09:11:58;;;;;;;19.27;8.48;;;;;;;5.50;57.97;103312.38;4958862;28;124188;-80
2024/01/12 09:14:27;;;;;;;17.40;7.82;;;;;;;5.51;57.67;103306.25;4935839;28;124732;-80
2024/01/12 09:16:56;;;;;;;18.60;8.18;;;;;;;5.54;57.84;103319.44;4935487;28;114404;-81
2024/01/12 09:19:25;;;;;;;21.52;8.32;;;;;;;5.56;57.87;103320.34;4937318;28;114244;-80
2024/01/12 09:21:54;;;;;;;18.02;8.05;;;;;;;5.60;57.97;103322.16;4942371;28;124595;-80
2024/01/12 09:24:23;;;;;;;18.98;7.80;;;;;;;5.63;58.07;103309.06;4942852;28;126839;-80
2024/01/12 09:26:51;;;;;;;21.85;8.02;;;;;;;5.66;58.03;103303.84;4926975;28;114043;-80
2024/01/12 09:29:20;;;;;;;23.73;8.00;;;;;;;5.70;58.11;103306.53;4957019;28;114094;-80
2024/01/12 09:31:49;;;;;;;15.90;7.40;;;;;;;5.70;58.03;103301.28;4950946;28;124894;-80
2024/01/12 09:34:18;;;;;;;18.83;7.72;;;;;;;5.72;57.83;103294.28;4935745;28;123667;-80
2024/01/12 09:36:47;;;;;;;20.02;8.88;;;;;;;5.73;57.83;103288.19;4933378;28;115427;-81
2024/01/12 09:39:17;;;;;;;22.65;8.95;;;;;;;5.76;57.88;103288.22;4926421;28;114985;-80
2024/01/12 09:41:49;;;;;;;20.75;7.82;;;;;;;5.77;58.06;103290.88;4950198;28;126216;-80
2024/01/12 09:44:20;;;;;;;19.58;7.22;;;;;;;5.83;57.70;103290.06;4940685;28;124706;-80
2024/01/12 09:46:59;;;;;;;16.98;6.97;;;;;;;5.87;58.10;103297.13;4943359;28;114017;-80
2024/01/12 09:49:30;;;;;;;19.13;7.95;;;;;;;5.89;58.00;103295.41;4938637;28;113985;-80
2024/01/12 09:52:03;;;;;;;19.20;7.70;;;;;;;5.91;58.41;103301.56;4941078;28;124045;-80
2024/01/12 09:54:32;;;;;;;18.55;8.15;;;;;;;5.93;58.28;103307.72;4937427;28;123627;-80
2024/01/12 09:57:03;;;;;;;16.33;7.85;;;;;;;6.00;58.00;103314.88;4923457;28;115452;-80
2024/01/12 09:59:32;;;;;;;19.15;8.45;;;;;;;6.03;58.23;103309.69;4934216;28;114048;-80
2024/01/12 10:02:02;;;;;;;24.17;9.05;;;;;;;6.04;58.02;103306.16;4929183;28;124090;-80
2024/01/12 10:04:32;;;;;;;14.90;7.75;;;;;;;6.09;58.12;103318.53;4916436;28;123817;-80
2024/01/12 10:07:02;;;;;;;21.17;8.88;;;;;;;6.11;58.16;103322.06;4928812;28;114461;-80
2024/01/12 10:09:31;;;;;;;17.45;8.32;;;;;;;6.17;58.05;103327.41;4926818;28;113667;-80
2024/01/12 10:12:01;;;;;;;18.80;8.02;;;;;;;6.18;58.10;103318.66;4938456;28;124372;-80
2024/01/12 10:14:31;;;;;;;18.75;8.50;;;;;;;6.20;58.15;103322.19;4942529;28;124057;-80
2024/01/12 10:17:01;;;;;;;18.55;8.65;;;;;;;6.19;58.05;103321.28;4947872;28;114942;-80
2024/01/12 10:19:30;;;;;;;21.67;7.90;;;;;;;6.22;58.18;103317.81;4946129;28;114716;-80
2024/01/12 10:22:02;;;;;;;19.08;7.32;;;;;;;6.25;57.71;103317.84;4940014;28;125496;-80
2024/01/12 10:24:34;;;;;;;16.20;7.43;;;;;;;6.25;57.74;103309.94;4968078;28;126646;-80
2024/01/12 10:27:07;;;;;;;12.98;6.68;;;;;;;6.26;57.68;103306.47;4926698;28;115461;-80
2024/01/12 10:29:41;;;;;;;17.75;7.47;;;;;;;6.28;57.83;103294.22;4941192;28;115690;-81
2024/01/12 10:32:12;;;;;;;16.35;6.10;;;;;;;6.31;58.09;103303.88;4940031;28;124826;-81
2024/01/12 10:34:48;;;;;;;16.92;6.82;;;;;;;6.32;57.76;103306.53;4941665;28;124779;-80
2024/01/12 10:37:26;;;;;;;18.08;6.68;;;;;;;6.36;57.85;103307.47;4920100;28;96869;-77
2024/01/12 10:39:58;;;;;;;17.42;6.38;;;;;;;6.39;58.04;103313.66;4921557;28;114438;-77
2024/01/12 10:42:28;;;;;;;18.25;6.35;;;;;;;6.42;58.37;103308.44;4915582;28;123895;-77
2024/01/12 10:44:59;;;;;;;16.42;7.35;;;;;;;6.43;57.94;103307.56;4919177;28;123079;-77
2024/01/12 10:47:58;;;;;;;15.68;7.32;;;;;;;6.46;58.10;103303.19;4933081;28;114998;-77
2024/01/12 10:50:26;;;;;;;23.17;7.95;;;;;;;6.47;57.98;103300.56;4933469;28;114305;-77
2024/01/12 10:53:14;;;;;;;18.08;7.68;;;;;;;6.49;57.77;103297.97;4915702;28;122980;-76
2024/01/12 10:55:50;;;;;;;14.45;6.85;;;;;;;6.51;57.90;103285.69;4919643;28;124428;-76
2024/01/12 10:58:18;;;;;;;15.90;6.60;;;;;;;6.52;57.77;103287.47;4933655;28;113845;-76
2024/01/12 11:00:58;;;;;;;22.23;7.93;;;;;;;6.52;57.53;103287.47;4922031;28;114672;-77
2024/01/12 11:03:27;;;;;;;21.73;7.30;;;;;;;6.51;57.76;103296.22;4915269;28;124708;-77
2024/01/12 11:06:04;;;;;;;20.67;7.00;;;;;;;6.51;57.97;103290.97;4915616;28;123924;-77
2024/01/12 11:08:33;;;;;;;20.48;7.60;;;;;;;6.51;57.84;103285.69;4916992;28;112655;-76
2024/01/12 11:11:09;;;;;;;16.45;6.78;;;;;;;6.50;57.80;103283.91;4918242;28;113725;-76
2024/01/12 11:13:37;;;;;;;16.80;7.53;;;;;;;6.51;57.76;103280.44;4921643;28;123347;-76
2024/01/12 11:16:06;;;;;;;23.05;7.68;;;;;;;6.52;57.98;103276.94;4931790;28;123629;-77
2024/01/12 11:18:35;;;;;;;18.70;6.82;;;;;;;6.54;57.70;103273.47;4931253;28;115189;-77